sensor_id;sensor_type;location;lat;lon;timestamp;temperature;humidity
8214;DHT22;4148;47.974;7.824;2022-12-07T00:01:05;4.50;99.90
8214;DHT22;4148;47.974;7.824;2022-12-07T00:03:34;4.50;99.90
8214;DHT22;4148;47.974;7.824;2022-12-07T00:06:03;4.40;99.90
8214;DHT22;4148;47.974;7.824;2022-12-07T00:08:32;4.50;99.90
8214;DHT22;4148;47.974;7.824;2022-12-07T00:11:01;4.50;99.90
8214;DHT22;4148;47.974;7.824;2022-12-07T00:13:32;4.40;99.90
8214;DHT22;4148;47.974;7.824;2022-12-07T00:16:01;4.40;99.90
8214;DHT22;4148;47.974;7.824;2022-12-07T00:18:29;4.30;99.90
8214;DHT22;4148;47.974;7.824;2022-12-07T00:21:00;4.20;99.90
8214;DHT22;4148;47.974;7.824;2022-12-07T00:23:29;4.20;99.90
8214;DHT22;4148;47.974;7.824;2022-12-07T00:26:03;4.30;99.90
8214;DHT22;4148;47.974;7.824;2022-12-07T00:28:32;4.40;99.90
8214;DHT22;4148;47.974;7.824;2022-12-07T00:31:05;4.50;99.90
8214;DHT22;4148;47.974;7.824;2022-12-07T00:33:34;4.50;99.90
8214;DHT22;4148;47.974;7.824;2022-12-07T00:36:04;4.60;99.90
8214;DHT22;4148;47.974;7.824;2022-12-07T00:38:34;4.60;99.90
8214;DHT22;4148;47.974;7.824;2022-12-07T00:41:04;4.50;99.90
8214;DHT22;4148;47.974;7.824;2022-12-07T00:43:34;4.40;99.90
8214;DHT22;4148;47.974;7.824;2022-12-07T00:46:02;4.30;99.90
8214;DHT22;4148;47.974;7.824;2022-12-07T00:48:30;4.20;99.90
8214;DHT22;4148;47.974;7.824;2022-12-07T00:50:58;4.10;99.90
8214;DHT22;4148;47.974;7.824;2022-12-07T00:53:27;4.00;99.90
8214;DHT22;4148;47.974;7.824;2022-12-07T00:55:55;4.00;99.90
8214;DHT22;4148;47.974;7.824;2022-12-07T00:58:23;4.10;99.90
8214;DHT22;4148;47.974;7.824;2022-12-07T01:00:53;4.10;99.90
8214;DHT22;4148;47.974;7.824;2022-12-07T01:03:21;4.10;99.90
8214;DHT22;4148;47.974;7.824;2022-12-07T01:05:50;4.20;99.90
8214;DHT22;4148;47.974;7.824;2022-12-07T01:08:18;4.20;99.90
8214;DHT22;4148;47.974;7.824;2022-12-07T01:10:46;4.10;99.90
8214;DHT22;4148;47.974;7.824;2022-12-07T01:13:14;4.10;99.90
8214;DHT22;4148;47.974;7.824;2022-12-07T01:15:43;4.00;99.90
8214;DHT22;4148;47.974;7.824;2022-12-07T01:18:13;4.00;99.90
8214;DHT22;4148;47.974;7.824;2022-12-07T01:20:41;4.20;99.90
8214;DHT22;4148;47.974;7.824;2022-12-07T01:23:08;4.10;99.90
8214;DHT22;4148;47.974;7.824;2022-12-07T01:25:36;4.00;99.90
8214;DHT22;4148;47.974;7.824;2022-12-07T01:28:04;4.00;99.90
8214;DHT22;4148;47.974;7.824;2022-12-07T01:30:32;4.10;99.90
8214;DHT22;4148;47.974;7.824;2022-12-07T01:33:00;4.10;99.90
8214;DHT22;4148;47.974;7.824;2022-12-07T01:35:29;4.10;99.90
8214;DHT22;4148;47.974;7.824;2022-12-07T01:38:00;4.10;99.90
8214;DHT22;4148;47.974;7.824;2022-12-07T01:40:28;4.00;99.90
8214;DHT22;4148;47.974;7.824;2022-12-07T01:42:56;4.00;99.90
8214;DHT22;4148;47.974;7.824;2022-12-07T01:45:42;4.00;99.90
8214;DHT22;4148;47.974;7.824;2022-12-07T01:48:11;4.00;99.90
8214;DHT22;4148;47.974;7.824;2022-12-07T01:50:42;4.00;99.90
8214;DHT22;4148;47.974;7.824;2022-12-07T01:53:11;4.20;99.90
8214;DHT22;4148;47.974;7.824;2022-12-07T01:55:42;4.20;99.90
8214;DHT22;4148;47.974;7.824;2022-12-07T01:58:12;4.40;99.90
8214;DHT22;4148;47.974;7.824;2022-12-07T02:00:41;4.40;99.90
8214;DHT22;4148;47.974;7.824;2022-12-07T02:03:14;4.40;99.90
8214;DHT22;4148;47.974;7.824;2022-12-07T02:05:46;4.40;99.90
8214;DHT22;4148;47.974;7.824;2022-12-07T02:08:16;4.40;99.90
8214;DHT22;4148;47.974;7.824;2022-12-07T02:10:45;4.60;99.90
8214;DHT22;4148;47.974;7.824;2022-12-07T02:13:15;4.50;99.90
8214;DHT22;4148;47.974;7.824;2022-12-07T02:16:02;4.40;99.90
8214;DHT22;4148;47.974;7.824;2022-12-07T02:18:42;4.50;99.90
8214;DHT22;4148;47.974;7.824;2022-12-07T02:21:19;4.50;99.90
8214;DHT22;4148;47.974;7.824;2022-12-07T02:24:14;4.50;99.90
8214;DHT22;4148;47.974;7.824;2022-12-07T02:27:07;4.50;99.90
8214;DHT22;4148;47.974;7.824;2022-12-07T02:29:45;4.60;99.90
8214;DHT22;4148;47.974;7.824;2022-12-07T02:32:18;4.60;99.90
8214;DHT22;4148;47.974;7.824;2022-12-07T02:34:50;4.50;99.90
8214;DHT22;4148;47.974;7.824;2022-12-07T02:37:27;4.60;99.90
8214;DHT22;4148;47.974;7.824;2022-12-07T02:40:00;4.60;99.90
8214;DHT22;4148;47.974;7.824;2022-12-07T02:42:33;4.50;99.90
8214;DHT22;4148;47.974;7.824;2022-12-07T02:45:05;4.40;99.90
8214;DHT22;4148;47.974;7.824;2022-12-07T02:47:36;4.40;99.90
8214;DHT22;4148;47.974;7.824;2022-12-07T02:50:05;4.40;99.90
8214;DHT22;4148;47.974;7.824;2022-12-07T02:52:34;4.40;99.90
8214;DHT22;4148;47.974;7.824;2022-12-07T02:55:02;4.40;99.90
8214;DHT22;4148;47.974;7.824;2022-12-07T02:57:51;4.30;99.90
8214;DHT22;4148;47.974;7.824;2022-12-07T03:00:23;4.40;99.90
8214;DHT22;4148;47.974;7.824;2022-12-07T03:02:54;4.50;99.90
8214;DHT22;4148;47.974;7.824;2022-12-07T03:05:36;4.40;99.90
8214;DHT22;4148;47.974;7.824;2022-12-07T03:08:11;4.40;99.90
8214;DHT22;4148;47.974;7.824;2022-12-07T03:10:48;4.30;99.90
8214;DHT22;4148;47.974;7.824;2022-12-07T03:13:23;4.40;99.90
8214;DHT22;4148;47.974;7.824;2022-12-07T03:15:56;4.30;99.90
8214;DHT22;4148;47.974;7.824;2022-12-07T03:18:29;4.30;99.90
8214;DHT22;4148;47.974;7.824;2022-12-07T03:21:01;4.30;99.90
8214;DHT22;4148;47.974;7.824;2022-12-07T03:23:32;4.20;99.90
8214;DHT22;4148;47.974;7.824;2022-12-07T03:26:01;4.20;99.90
8214;DHT22;4148;47.974;7.824;2022-12-07T03:28:33;4.20;99.90
8214;DHT22;4148;47.974;7.824;2022-12-07T03:31:06;4.20;99.90
8214;DHT22;4148;47.974;7.824;2022-12-07T03:33:41;4.10;99.90
8214;DHT22;4148;47.974;7.824;2022-12-07T03:36:15;4.00;99.90
8214;DHT22;4148;47.974;7.824;2022-12-07T03:38:47;3.90;99.90
8214;DHT22;4148;47.974;7.824;2022-12-07T03:41:21;4.00;99.90
8214;DHT22;4148;47.974;7.824;2022-12-07T03:43:50;4.10;99.90
8214;DHT22;4148;47.974;7.824;2022-12-07T03:46:25;4.10;99.90
8214;DHT22;4148;47.974;7.824;2022-12-07T03:49:00;4.30;99.90
8214;DHT22;4148;47.974;7.824;2022-12-07T03:51:35;4.20;99.90
8214;DHT22;4148;47.974;7.824;2022-12-07T03:54:09;4.10;99.90
8214;DHT22;4148;47.974;7.824;2022-12-07T03:56:40;4.20;99.90
8214;DHT22;4148;47.974;7.824;2022-12-07T03:59:09;4.20;99.90
8214;DHT22;4148;47.974;7.824;2022-12-07T04:01:39;4.10;99.90
8214;DHT22;4148;47.974;7.824;2022-12-07T04:04:08;4.10;99.90
8214;DHT22;4148;47.974;7.824;2022-12-07T04:06:36;4.00;99.90
8214;DHT22;4148;47.974;7.824;2022-12-07T04:09:04;4.20;99.90
8214;DHT22;4148;47.974;7.824;2022-12-07T04:11:32;4.20;99.90
8214;DHT22;4148;47.974;7.824;2022-12-07T04:14:00;4.10;99.90
8214;DHT22;4148;47.974;7.824;2022-12-07T04:16:49;3.90;99.90
8214;DHT22;4148;47.974;7.824;2022-12-07T04:19:18;3.80;99.90
8214;DHT22;4148;47.974;7.824;2022-12-07T04:21:47;3.80;99.90
8214;DHT22;4148;47.974;7.824;2022-12-07T04:24:15;3.80;99.90
8214;DHT22;4148;47.974;7.824;2022-12-07T04:26:46;3.80;99.90
8214;DHT22;4148;47.974;7.824;2022-12-07T04:29:15;3.80;99.90
8214;DHT22;4148;47.974;7.824;2022-12-07T04:31:43;3.80;99.90
8214;DHT22;4148;47.974;7.824;2022-12-07T04:34:14;3.80;99.90
8214;DHT22;4148;47.974;7.824;2022-12-07T04:36:42;3.70;99.90
8214;DHT22;4148;47.974;7.824;2022-12-07T04:39:18;3.80;99.90
8214;DHT22;4148;47.974;7.824;2022-12-07T04:41:47;3.90;99.90
8214;DHT22;4148;47.974;7.824;2022-12-07T04:44:15;3.90;99.90
8214;DHT22;4148;47.974;7.824;2022-12-07T04:46:43;3.90;99.90
8214;DHT22;4148;47.974;7.824;2022-12-07T04:49:14;3.90;99.90
8214;DHT22;4148;47.974;7.824;2022-12-07T04:51:42;3.90;99.90
8214;DHT22;4148;47.974;7.824;2022-12-07T04:54:11;3.90;99.90
8214;DHT22;4148;47.974;7.824;2022-12-07T04:56:39;4.00;99.90
8214;DHT22;4148;47.974;7.824;2022-12-07T04:59:08;4.00;99.90
8214;DHT22;4148;47.974;7.824;2022-12-07T05:01:37;3.90;99.90
8214;DHT22;4148;47.974;7.824;2022-12-07T05:04:05;3.90;99.90
8214;DHT22;4148;47.974;7.824;2022-12-07T05:06:35;3.90;99.90
8214;DHT22;4148;47.974;7.824;2022-12-07T05:09:03;3.80;99.90
8214;DHT22;4148;47.974;7.824;2022-12-07T05:11:31;3.90;99.90
8214;DHT22;4148;47.974;7.824;2022-12-07T05:14:11;3.80;99.90
8214;DHT22;4148;47.974;7.824;2022-12-07T05:16:40;3.70;99.90
8214;DHT22;4148;47.974;7.824;2022-12-07T05:19:08;3.60;99.90
8214;DHT22;4148;47.974;7.824;2022-12-07T05:21:38;3.70;99.90
8214;DHT22;4148;47.974;7.824;2022-12-07T05:24:07;3.70;99.90
8214;DHT22;4148;47.974;7.824;2022-12-07T05:26:36;3.70;99.90
8214;DHT22;4148;47.974;7.824;2022-12-07T05:29:04;3.60;99.90
8214;DHT22;4148;47.974;7.824;2022-12-07T05:31:32;3.60;99.90
8214;DHT22;4148;47.974;7.824;2022-12-07T05:34:01;3.60;99.90
8214;DHT22;4148;47.974;7.824;2022-12-07T05:36:29;3.70;99.90
8214;DHT22;4148;47.974;7.824;2022-12-07T05:38:59;3.70;99.90
8214;DHT22;4148;47.974;7.824;2022-12-07T05:41:27;3.60;99.90
8214;DHT22;4148;47.974;7.824;2022-12-07T05:44:13;3.60;99.90
8214;DHT22;4148;47.974;7.824;2022-12-07T05:46:41;3.50;99.90
8214;DHT22;4148;47.974;7.824;2022-12-07T05:49:09;3.50;99.90
8214;DHT22;4148;47.974;7.824;2022-12-07T05:51:37;3.60;99.90
8214;DHT22;4148;47.974;7.824;2022-12-07T05:54:06;3.70;99.90
8214;DHT22;4148;47.974;7.824;2022-12-07T05:56:34;3.70;99.90
8214;DHT22;4148;47.974;7.824;2022-12-07T05:59:02;3.60;99.90
8214;DHT22;4148;47.974;7.824;2022-12-07T06:01:48;3.50;99.90
8214;DHT22;4148;47.974;7.824;2022-12-07T06:04:16;3.50;99.90
8214;DHT22;4148;47.974;7.824;2022-12-07T06:06:44;3.40;99.90
8214;DHT22;4148;47.974;7.824;2022-12-07T06:09:13;3.40;99.90
8214;DHT22;4148;47.974;7.824;2022-12-07T06:11:41;3.60;99.90
8214;DHT22;4148;47.974;7.824;2022-12-07T06:14:27;3.60;99.90
8214;DHT22;4148;47.974;7.824;2022-12-07T06:16:55;3.60;99.90
8214;DHT22;4148;47.974;7.824;2022-12-07T06:19:23;3.60;99.90
8214;DHT22;4148;47.974;7.824;2022-12-07T06:21:51;3.50;99.90
8214;DHT22;4148;47.974;7.824;2022-12-07T06:24:20;3.40;99.90
8214;DHT22;4148;47.974;7.824;2022-12-07T06:26:49;3.50;99.90
8214;DHT22;4148;47.974;7.824;2022-12-07T06:29:17;3.50;99.90
8214;DHT22;4148;47.974;7.824;2022-12-07T06:31:45;3.30;99.90
8214;DHT22;4148;47.974;7.824;2022-12-07T06:34:15;3.20;99.90
8214;DHT22;4148;47.974;7.824;2022-12-07T06:36:43;3.20;99.90
8214;DHT22;4148;47.974;7.824;2022-12-07T06:39:11;3.20;99.90
8214;DHT22;4148;47.974;7.824;2022-12-07T06:41:40;3.10;99.90
8214;DHT22;4148;47.974;7.824;2022-12-07T06:44:08;2.90;99.90
8214;DHT22;4148;47.974;7.824;2022-12-07T06:46:36;2.90;99.90
8214;DHT22;4148;47.974;7.824;2022-12-07T06:49:05;2.80;99.90
8214;DHT22;4148;47.974;7.824;2022-12-07T06:51:33;2.70;99.90
8214;DHT22;4148;47.974;7.824;2022-12-07T06:54:03;2.60;99.90
8214;DHT22;4148;47.974;7.824;2022-12-07T06:56:31;2.70;99.90
8214;DHT22;4148;47.974;7.824;2022-12-07T06:59:00;2.80;99.90
8214;DHT22;4148;47.974;7.824;2022-12-07T07:01:29;2.90;99.90
8214;DHT22;4148;47.974;7.824;2022-12-07T07:03:57;2.80;99.90
8214;DHT22;4148;47.974;7.824;2022-12-07T07:06:25;2.80;99.90
8214;DHT22;4148;47.974;7.824;2022-12-07T07:08:53;2.80;99.90
8214;DHT22;4148;47.974;7.824;2022-12-07T07:11:21;2.70;99.90
8214;DHT22;4148;47.974;7.824;2022-12-07T07:13:49;2.50;99.90
8214;DHT22;4148;47.974;7.824;2022-12-07T07:16:18;2.30;99.90
8214;DHT22;4148;47.974;7.824;2022-12-07T07:18:46;2.10;99.90
8214;DHT22;4148;47.974;7.824;2022-12-07T07:21:13;2.00;99.90
8214;DHT22;4148;47.974;7.824;2022-12-07T07:23:41;1.80;99.90
8214;DHT22;4148;47.974;7.824;2022-12-07T07:26:09;1.80;99.90
8214;DHT22;4148;47.974;7.824;2022-12-07T07:28:38;2.00;99.90
8214;DHT22;4148;47.974;7.824;2022-12-07T07:31:06;2.00;99.90
8214;DHT22;4148;47.974;7.824;2022-12-07T07:33:35;1.90;99.90
8214;DHT22;4148;47.974;7.824;2022-12-07T07:36:03;1.90;99.90
8214;DHT22;4148;47.974;7.824;2022-12-07T07:38:31;1.90;99.90
8214;DHT22;4148;47.974;7.824;2022-12-07T07:40:59;1.80;99.90
8214;DHT22;4148;47.974;7.824;2022-12-07T07:43:27;1.70;99.90
8214;DHT22;4148;47.974;7.824;2022-12-07T07:45:55;1.60;99.90
8214;DHT22;4148;47.974;7.824;2022-12-07T07:48:23;1.60;99.90
8214;DHT22;4148;47.974;7.824;2022-12-07T07:50:53;1.90;99.90
8214;DHT22;4148;47.974;7.824;2022-12-07T07:53:21;1.90;99.90
8214;DHT22;4148;47.974;7.824;2022-12-07T07:55:52;1.90;99.90
8214;DHT22;4148;47.974;7.824;2022-12-07T07:58:21;1.90;99.90
8214;DHT22;4148;47.974;7.824;2022-12-07T08:00:49;2.00;99.90
8214;DHT22;4148;47.974;7.824;2022-12-07T08:03:17;1.90;99.90
8214;DHT22;4148;47.974;7.824;2022-12-07T08:05:44;1.80;99.90
8214;DHT22;4148;47.974;7.824;2022-12-07T08:08:14;1.90;99.90
8214;DHT22;4148;47.974;7.824;2022-12-07T08:10:42;1.90;99.90
8214;DHT22;4148;47.974;7.824;2022-12-07T08:13:10;2.00;99.90
8214;DHT22;4148;47.974;7.824;2022-12-07T08:15:43;1.90;99.90
8214;DHT22;4148;47.974;7.824;2022-12-07T08:18:11;1.90;99.90
8214;DHT22;4148;47.974;7.824;2022-12-07T08:20:41;1.90;99.90
8214;DHT22;4148;47.974;7.824;2022-12-07T08:23:09;1.90;99.90
8214;DHT22;4148;47.974;7.824;2022-12-07T08:25:39;2.00;99.90
8214;DHT22;4148;47.974;7.824;2022-12-07T08:28:07;2.00;99.90
8214;DHT22;4148;47.974;7.824;2022-12-07T08:30:35;2.10;99.90
8214;DHT22;4148;47.974;7.824;2022-12-07T08:33:03;2.20;99.90
8214;DHT22;4148;47.974;7.824;2022-12-07T08:35:32;2.30;99.90
8214;DHT22;4148;47.974;7.824;2022-12-07T08:38:01;2.40;99.90
8214;DHT22;4148;47.974;7.824;2022-12-07T08:40:30;2.60;99.90
8214;DHT22;4148;47.974;7.824;2022-12-07T08:42:59;2.80;99.90
8214;DHT22;4148;47.974;7.824;2022-12-07T08:45:27;2.80;99.90
8214;DHT22;4148;47.974;7.824;2022-12-07T08:48:02;2.90;99.90
8214;DHT22;4148;47.974;7.824;2022-12-07T08:50:32;3.20;99.90
8214;DHT22;4148;47.974;7.824;2022-12-07T08:53:00;3.30;99.90
8214;DHT22;4148;47.974;7.824;2022-12-07T08:55:29;3.30;99.90
8214;DHT22;4148;47.974;7.824;2022-12-07T08:57:59;3.50;99.90
8214;DHT22;4148;47.974;7.824;2022-12-07T09:00:27;3.50;99.90
8214;DHT22;4148;47.974;7.824;2022-12-07T09:02:55;3.70;99.90
8214;DHT22;4148;47.974;7.824;2022-12-07T09:05:23;3.80;99.90
8214;DHT22;4148;47.974;7.824;2022-12-07T09:07:54;3.80;99.90
8214;DHT22;4148;47.974;7.824;2022-12-07T09:10:23;4.00;99.90
8214;DHT22;4148;47.974;7.824;2022-12-07T09:12:51;4.00;99.90
8214;DHT22;4148;47.974;7.824;2022-12-07T09:15:20;4.10;99.90
8214;DHT22;4148;47.974;7.824;2022-12-07T09:17:48;4.30;99.90
8214;DHT22;4148;47.974;7.824;2022-12-07T09:20:16;4.30;99.90
8214;DHT22;4148;47.974;7.824;2022-12-07T09:22:48;4.20;99.90
8214;DHT22;4148;47.974;7.824;2022-12-07T09:25:16;4.30;99.90
8214;DHT22;4148;47.974;7.824;2022-12-07T09:27:44;4.40;99.90
8214;DHT22;4148;47.974;7.824;2022-12-07T09:30:12;4.70;99.90
8214;DHT22;4148;47.974;7.824;2022-12-07T09:32:42;4.90;99.90
8214;DHT22;4148;47.974;7.824;2022-12-07T09:35:10;5.20;99.90
8214;DHT22;4148;47.974;7.824;2022-12-07T09:37:38;5.30;99.90
8214;DHT22;4148;47.974;7.824;2022-12-07T09:40:06;5.50;99.90
8214;DHT22;4148;47.974;7.824;2022-12-07T09:42:36;5.60;99.90
8214;DHT22;4148;47.974;7.824;2022-12-07T09:45:10;6.20;99.90
8214;DHT22;4148;47.974;7.824;2022-12-07T09:47:39;6.50;99.90
8214;DHT22;4148;47.974;7.824;2022-12-07T09:50:14;6.90;99.90
8214;DHT22;4148;47.974;7.824;2022-12-07T09:52:43;7.10;99.90
8214;DHT22;4148;47.974;7.824;2022-12-07T09:55:14;7.10;99.90
8214;DHT22;4148;47.974;7.824;2022-12-07T09:57:43;7.30;99.90
8214;DHT22;4148;47.974;7.824;2022-12-07T10:00:14;7.40;99.90
8214;DHT22;4148;47.974;7.824;2022-12-07T10:02:46;7.80;99.90
8214;DHT22;4148;47.974;7.824;2022-12-07T10:05:19;8.30;99.90
8214;DHT22;4148;47.974;7.824;2022-12-07T10:07:50;8.70;99.90
8214;DHT22;4148;47.974;7.824;2022-12-07T10:10:23;8.60;99.90
8214;DHT22;4148;47.974;7.824;2022-12-07T10:12:58;8.60;99.90
8214;DHT22;4148;47.974;7.824;2022-12-07T10:15:46;8.60;99.90
8214;DHT22;4148;47.974;7.824;2022-12-07T10:18:27;8.60;99.90
8214;DHT22;4148;47.974;7.824;2022-12-07T10:21:12;8.50;99.90
8214;DHT22;4148;47.974;7.824;2022-12-07T10:23:42;8.80;99.90
8214;DHT22;4148;47.974;7.824;2022-12-07T10:26:30;9.10;99.90
8214;DHT22;4148;47.974;7.824;2022-12-07T10:29:00;9.60;99.90
8214;DHT22;4148;47.974;7.824;2022-12-07T10:31:29;9.90;99.90
8214;DHT22;4148;47.974;7.824;2022-12-07T10:33:58;9.90;99.90
8214;DHT22;4148;47.974;7.824;2022-12-07T10:36:35;10.00;99.90
8214;DHT22;4148;47.974;7.824;2022-12-07T10:39:11;10.40;99.90
8214;DHT22;4148;47.974;7.824;2022-12-07T10:41:53;10.60;99.90
8214;DHT22;4148;47.974;7.824;2022-12-07T10:44:25;10.60;99.90
8214;DHT22;4148;47.974;7.824;2022-12-07T10:47:17;10.80;99.90
8214;DHT22;4148;47.974;7.824;2022-12-07T10:50:11;10.50;99.50
8214;DHT22;4148;47.974;7.824;2022-12-07T10:55:45;10.00;99.90
8214;DHT22;4148;47.974;7.824;2022-12-07T10:58:29;10.10;99.90
8214;DHT22;4148;47.974;7.824;2022-12-07T11:01:06;10.40;99.90
8214;DHT22;4148;47.974;7.824;2022-12-07T11:04:03;10.50;99.90
8214;DHT22;4148;47.974;7.824;2022-12-07T11:06:39;10.50;99.90
8214;DHT22;4148;47.974;7.824;2022-12-07T11:09:30;10.80;99.90
8214;DHT22;4148;47.974;7.824;2022-12-07T11:12:33;11.00;99.90
8214;DHT22;4148;47.974;7.824;2022-12-07T11:15:12;11.20;98.20
8214;DHT22;4148;47.974;7.824;2022-12-07T11:17:48;11.10;99.00
8214;DHT22;4148;47.974;7.824;2022-12-07T11:20:29;11.50;99.50
8214;DHT22;4148;47.974;7.824;2022-12-07T11:23:10;12.00;99.90
8214;DHT22;4148;47.974;7.824;2022-12-07T11:25:49;11.90;97.80
8214;DHT22;4148;47.974;7.824;2022-12-07T11:28:31;11.30;97.40
8214;DHT22;4148;47.974;7.824;2022-12-07T11:31:08;11.10;97.80
8214;DHT22;4148;47.974;7.824;2022-12-07T11:33:45;10.90;97.20
8214;DHT22;4148;47.974;7.824;2022-12-07T11:36:31;11.00;98.70
8214;DHT22;4148;47.974;7.824;2022-12-07T11:39:02;10.90;99.70
8214;DHT22;4148;47.974;7.824;2022-12-07T11:41:35;11.00;99.50
8214;DHT22;4148;47.974;7.824;2022-12-07T11:44:06;10.90;99.70
8214;DHT22;4148;47.974;7.824;2022-12-07T11:46:45;11.10;98.00
8214;DHT22;4148;47.974;7.824;2022-12-07T11:49:21;10.80;98.20
8214;DHT22;4148;47.974;7.824;2022-12-07T11:51:53;10.80;98.70
8214;DHT22;4148;47.974;7.824;2022-12-07T11:54:26;11.00;99.60
8214;DHT22;4148;47.974;7.824;2022-12-07T11:57:02;11.50;98.20
8214;DHT22;4148;47.974;7.824;2022-12-07T11:59:36;12.00;97.50
8214;DHT22;4148;47.974;7.824;2022-12-07T12:02:13;12.10;95.90
8214;DHT22;4148;47.974;7.824;2022-12-07T12:04:49;12.30;94.80
8214;DHT22;4148;47.974;7.824;2022-12-07T12:07:22;12.30;95.80
8214;DHT22;4148;47.974;7.824;2022-12-07T12:10:18;12.20;95.40
8214;DHT22;4148;47.974;7.824;2022-12-07T12:16:09;11.10;95.50
8214;DHT22;4148;47.974;7.824;2022-12-07T12:19:15;11.00;97.40
8214;DHT22;4148;47.974;7.824;2022-12-07T12:21:47;10.90;97.80
8214;DHT22;4148;47.974;7.824;2022-12-07T12:24:25;10.70;99.00
8214;DHT22;4148;47.974;7.824;2022-12-07T12:26:58;10.50;99.30
8214;DHT22;4148;47.974;7.824;2022-12-07T12:29:34;10.50;99.10
8214;DHT22;4148;47.974;7.824;2022-12-07T12:32:15;10.10;99.90
8214;DHT22;4148;47.974;7.824;2022-12-07T12:35:03;10.00;99.90
8214;DHT22;4148;47.974;7.824;2022-12-07T12:37:47;9.90;99.90
8214;DHT22;4148;47.974;7.824;2022-12-07T12:40:39;9.80;99.90
8214;DHT22;4148;47.974;7.824;2022-12-07T12:43:43;9.50;99.90
8214;DHT22;4148;47.974;7.824;2022-12-07T12:49:36;9.10;99.90
8214;DHT22;4148;47.974;7.824;2022-12-07T12:55:20;8.70;99.90
8214;DHT22;4148;47.974;7.824;2022-12-07T12:58:30;8.60;99.90
8214;DHT22;4148;47.974;7.824;2022-12-07T13:07:07;8.40;99.90
8214;DHT22;4148;47.974;7.824;2022-12-07T13:09:36;8.30;99.90
8214;DHT22;4148;47.974;7.824;2022-12-07T13:12:13;8.30;99.90
8214;DHT22;4148;47.974;7.824;2022-12-07T13:14:54;8.20;99.90
8214;DHT22;4148;47.974;7.824;2022-12-07T13:18:00;8.20;99.90
8214;DHT22;4148;47.974;7.824;2022-12-07T13:20:49;8.20;99.90
8214;DHT22;4148;47.974;7.824;2022-12-07T13:23:22;8.20;99.90
8214;DHT22;4148;47.974;7.824;2022-12-07T13:25:58;8.00;99.90
8214;DHT22;4148;47.974;7.824;2022-12-07T13:28:35;7.90;99.90
8214;DHT22;4148;47.974;7.824;2022-12-07T13:31:22;7.90;99.90
8214;DHT22;4148;47.974;7.824;2022-12-07T13:33:51;7.80;99.90
8214;DHT22;4148;47.974;7.824;2022-12-07T13:36:22;7.80;99.90
8214;DHT22;4148;47.974;7.824;2022-12-07T13:38:55;7.80;99.90
8214;DHT22;4148;47.974;7.824;2022-12-07T13:41:24;7.70;99.90
8214;DHT22;4148;47.974;7.824;2022-12-07T13:44:00;7.70;99.90
8214;DHT22;4148;47.974;7.824;2022-12-07T13:46:43;7.70;99.90
8214;DHT22;4148;47.974;7.824;2022-12-07T13:49:22;7.60;99.90
8214;DHT22;4148;47.974;7.824;2022-12-07T13:51:51;7.60;99.90
8214;DHT22;4148;47.974;7.824;2022-12-07T13:54:21;7.60;99.90
8214;DHT22;4148;47.974;7.824;2022-12-07T13:56:51;7.50;99.90
8214;DHT22;4148;47.974;7.824;2022-12-07T13:59:21;7.50;99.90
8214;DHT22;4148;47.974;7.824;2022-12-07T14:01:51;7.50;99.90
8214;DHT22;4148;47.974;7.824;2022-12-07T14:04:33;7.40;99.90
8214;DHT22;4148;47.974;7.824;2022-12-07T14:09:54;7.40;99.90
8214;DHT22;4148;47.974;7.824;2022-12-07T14:12:22;7.50;99.90
8214;DHT22;4148;47.974;7.824;2022-12-07T14:14:50;7.50;99.90
8214;DHT22;4148;47.974;7.824;2022-12-07T14:17:20;7.40;99.90
8214;DHT22;4148;47.974;7.824;2022-12-07T14:19:50;7.30;99.90
8214;DHT22;4148;47.974;7.824;2022-12-07T14:22:28;7.40;99.90
8214;DHT22;4148;47.974;7.824;2022-12-07T14:27:49;7.30;99.90
8214;DHT22;4148;47.974;7.824;2022-12-07T14:30:18;7.20;99.90
8214;DHT22;4148;47.974;7.824;2022-12-07T14:32:48;7.20;99.90
8214;DHT22;4148;47.974;7.824;2022-12-07T14:35:19;7.10;99.90
8214;DHT22;4148;47.974;7.824;2022-12-07T14:37:48;7.10;99.90
8214;DHT22;4148;47.974;7.824;2022-12-07T14:40:19;6.90;99.90
8214;DHT22;4148;47.974;7.824;2022-12-07T14:42:51;6.90;99.90
8214;DHT22;4148;47.974;7.824;2022-12-07T14:45:22;6.80;99.90
8214;DHT22;4148;47.974;7.824;2022-12-07T14:47:50;6.70;99.90
8214;DHT22;4148;47.974;7.824;2022-12-07T14:50:41;6.70;99.90
8214;DHT22;4148;47.974;7.824;2022-12-07T14:53:33;6.70;99.90
8214;DHT22;4148;47.974;7.824;2022-12-07T14:56:04;6.60;99.90
8214;DHT22;4148;47.974;7.824;2022-12-07T14:58:33;6.50;99.90
8214;DHT22;4148;47.974;7.824;2022-12-07T15:01:01;6.40;99.90
8214;DHT22;4148;47.974;7.824;2022-12-07T15:03:29;6.40;99.90
8214;DHT22;4148;47.974;7.824;2022-12-07T15:05:57;6.60;99.90
8214;DHT22;4148;47.974;7.824;2022-12-07T15:08:25;6.60;99.90
8214;DHT22;4148;47.974;7.824;2022-12-07T15:10:54;6.50;99.90
8214;DHT22;4148;47.974;7.824;2022-12-07T15:13:23;6.50;99.90
8214;DHT22;4148;47.974;7.824;2022-12-07T15:16:10;6.30;99.90
8214;DHT22;4148;47.974;7.824;2022-12-07T15:18:40;6.50;99.90
8214;DHT22;4148;47.974;7.824;2022-12-07T15:21:28;6.40;99.90
8214;DHT22;4148;47.974;7.824;2022-12-07T15:23:56;6.50;99.90
8214;DHT22;4148;47.974;7.824;2022-12-07T15:26:24;6.50;99.90
8214;DHT22;4148;47.974;7.824;2022-12-07T15:28:54;6.30;99.90
8214;DHT22;4148;47.974;7.824;2022-12-07T15:31:22;6.20;99.90
8214;DHT22;4148;47.974;7.824;2022-12-07T15:34:09;6.20;99.90
8214;DHT22;4148;47.974;7.824;2022-12-07T15:36:37;6.10;99.90
8214;DHT22;4148;47.974;7.824;2022-12-07T15:39:05;6.00;99.90
8214;DHT22;4148;47.974;7.824;2022-12-07T15:41:41;5.90;99.90
8214;DHT22;4148;47.974;7.824;2022-12-07T15:44:12;5.90;99.90
8214;DHT22;4148;47.974;7.824;2022-12-07T15:46:57;6.00;99.90
8214;DHT22;4148;47.974;7.824;2022-12-07T15:49:26;6.10;99.90
8214;DHT22;4148;47.974;7.824;2022-12-07T15:51:54;5.90;99.90
8214;DHT22;4148;47.974;7.824;2022-12-07T15:54:24;6.00;99.90
8214;DHT22;4148;47.974;7.824;2022-12-07T15:56:52;5.90;99.90
8214;DHT22;4148;47.974;7.824;2022-12-07T15:59:22;5.80;99.90
8214;DHT22;4148;47.974;7.824;2022-12-07T16:01:50;5.80;99.90
8214;DHT22;4148;47.974;7.824;2022-12-07T16:04:18;5.90;99.90
8214;DHT22;4148;47.974;7.824;2022-12-07T16:06:46;5.90;99.90
8214;DHT22;4148;47.974;7.824;2022-12-07T16:09:14;6.00;99.90
8214;DHT22;4148;47.974;7.824;2022-12-07T16:11:42;6.00;99.90
8214;DHT22;4148;47.974;7.824;2022-12-07T16:14:10;5.80;99.90
8214;DHT22;4148;47.974;7.824;2022-12-07T16:16:39;5.60;99.90
8214;DHT22;4148;47.974;7.824;2022-12-07T16:19:08;5.40;99.90
8214;DHT22;4148;47.974;7.824;2022-12-07T16:21:37;5.10;99.90
8214;DHT22;4148;47.974;7.824;2022-12-07T16:24:06;4.90;99.90
8214;DHT22;4148;47.974;7.824;2022-12-07T16:26:34;4.70;99.90
8214;DHT22;4148;47.974;7.824;2022-12-07T16:29:02;4.60;99.90
8214;DHT22;4148;47.974;7.824;2022-12-07T16:31:30;4.40;99.90
8214;DHT22;4148;47.974;7.824;2022-12-07T16:33:59;4.20;99.90
8214;DHT22;4148;47.974;7.824;2022-12-07T16:36:27;4.40;99.90
8214;DHT22;4148;47.974;7.824;2022-12-07T16:39:15;4.50;99.90
8214;DHT22;4148;47.974;7.824;2022-12-07T16:41:44;4.60;99.90
8214;DHT22;4148;47.974;7.824;2022-12-07T16:44:13;4.60;99.90
8214;DHT22;4148;47.974;7.824;2022-12-07T16:46:41;4.60;99.90
8214;DHT22;4148;47.974;7.824;2022-12-07T16:49:13;4.40;99.90
8214;DHT22;4148;47.974;7.824;2022-12-07T16:51:41;4.20;99.90
8214;DHT22;4148;47.974;7.824;2022-12-07T16:54:10;4.20;99.90
8214;DHT22;4148;47.974;7.824;2022-12-07T16:56:39;4.10;99.90
8214;DHT22;4148;47.974;7.824;2022-12-07T16:59:08;4.00;99.90
8214;DHT22;4148;47.974;7.824;2022-12-07T17:01:36;4.10;99.90
8214;DHT22;4148;47.974;7.824;2022-12-07T17:04:04;3.80;99.90
8214;DHT22;4148;47.974;7.824;2022-12-07T17:06:35;3.70;99.90
8214;DHT22;4148;47.974;7.824;2022-12-07T17:09:03;3.70;99.90
8214;DHT22;4148;47.974;7.824;2022-12-07T17:11:35;3.50;99.90
8214;DHT22;4148;47.974;7.824;2022-12-07T17:14:03;3.40;99.90